Details From PAJN - Juneau Intl
To PAED - Elmendorf Afb
Flight Number -
Tags Generated
Created
Modified
Stats Distance 490 nm / 907 km
Max Altitude 0 ft / 0 m
Waypoints 3
Social Downloads 1
Likes 0
Share VATSIM

Download

Looking for another format? Having issues loading an existing format? Contact us
Advertisement - Login to hide

Notes

Generated

Route

PAJN OUTER PAED

ID Type Via Altitude Latitude Longitude Leg Dist Tot Dist Heading (true) Name
O PAJN APT - 0 ft / 0 m 58.35793˚ -134.59756˚ - 0 nm - -
OUTER FIX - 0 ft / 0 m 61.25833˚ -149.75000˚ 488 nm 488 nm 297° / 284° -
O PAED APT - 0 ft / 0 m 61.26208˚ -149.79348˚ 1 nm 489 nm 280° / 280° -

Altitude Profile

Advertisement - Login to hide

Weather


0- 5 10 15 20 25 30 35+ Temperature / ° C

Clouds and Precipitation
Forecast for 2017-12-15 12:00 UTC. Updated an hour ago

Ground ~20,000 ft ~40,000 ft Winds

PAJN

Details ICAO PAJN (JNU)
Name Juneau Intl
Region USA (Alaska)
Timezone America/Juneau (UTC-9.0)
Stats Elevation 21 ft / 6 m (AMSL)
Location 58.354964° -134.576278°
Runways 1
Magnetic Variation 19.148° E

METAR

PAJN 150753Z 08007KT 10SM FEW016 BKN034 OVC085 05/03 A2991

Decode

TAF

TAF PAJN 150520Z 1506/1606 10007KT P6SM -SHRA SCT030 BKN040 OVC060 FM150900 11010KT 6SM -SHRA BR SCT005 BKN035 OVC040 TEMPO 1509/1512 5SM -SHRA BKN025 OVC035 FM151900 10009KT P6SM VCSH SCT030 OVC035

Decode

Departure Runways

ID Width Length Bearing (true) Bearing (mag) Surface Threshold Offset Overrun Length
08 150 ft / 46 m 8,430 ft / 2,570 m 104.87° 85.72° Asphalt 0 ft / 0 m 450 ft / 137 m
26 150 ft / 46 m 8,430 ft / 2,570 m 284.90° 265.75° Asphalt 0 ft / 0 m 225 ft / 69 m

PAED

Details ICAO PAED (EDF)
Name ELMENDORF AFB
Region USA (Alaska)
Timezone America/Anchorage (UTC-9.0)
Stats Elevation 212 ft / 65 m (AMSL)
Location 61.251410° -149.804879°
Runways 2
Magnetic Variation 16.298° E

METAR

PAED 150756Z AUTO 02005KT 10SM OVC026 00/00 A2959

Decode

TAF

TAF AMD PAED 150325Z 1503/1609 17009KT 9000 -SN SCT008 BKN040 OVC060 610409 QNH2945INS TEMPO 1503/1509 SCT005 BKN009 610099 BECMG 1509/1510 15009KT 9999 NSW SCT010 SCT050 QNH2940INS BECMG 1521/1522 07012KT 9999 SCT020 BKN050 BKN100 620509 QNH2938INS TEMPO 1602/1608 07012G18KT TX02/1510Z TNM04/1517Z

Decode

Destination Runways

ID Width Length Bearing (true) Bearing (mag) Surface Threshold Offset Overrun Length
06 200 ft / 61 m 9,966 ft / 3,038 m 79.98° 63.68° Asphalt 0 ft / 0 m 1,000 ft / 305 m
16 150 ft / 46 m 7,493 ft / 2,284 m 180.00° 163.70° Asphalt 0 ft / 0 m 1,000 ft / 305 m
24 200 ft / 61 m 9,966 ft / 3,038 m 260.03° 243.73° Asphalt 0 ft / 0 m 1,000 ft / 305 m
34 150 ft / 46 m 7,493 ft / 2,284 m 0.00° 343.70° Asphalt 0 ft / 0 m 750 ft / 229 m

Approach Navaids

Runway Type Ident Frequency Range Bearing (true) Bearing (mag) Slope Elevation
06 Localiser IEDF 110.30 MHz 18 nm / 33 km 80.38° 64.09° - 212 ft / 65 m (AMSL)
06 Glidescope IEDF 110.30 MHz 10 nm / 19 km 80.00° 63.71° 2.83° 212 ft / 65 m (AMSL)

Popular Alternatives